Time;durP1;ratioP1;P1;durP2;ratioP2;P2;SDS_P1;SDS_P2;PMS_P1;PMS_P2;Temp;Humidity;BMP_temperature;BMP_pressure;BME280_temperature;BME280_humidity;BME280_pressure;Samples;Min_cycle;Max_cycle;Signal;HPM_P1;HPM_P2
2023/01/10 02:22:38;;;;;;;7.20;3.10;;;;;;;-10.76;100.00;100462.84;105516;1295;557993;-76
2023/01/10 02:25:18;;;;;;;4.90;2.80;;;;;;;-10.58;100.00;100459.39;106713;1289;229629;-77
2023/01/10 02:28:11;;;;;;;3.10;2.10;;;;;;;-10.56;100.00;100465.64;106355;1288;1018083;-76
2023/01/10 02:30:47;;;;;;;5.60;2.70;;;;;;;-10.57;100.00;100472.10;106456;1288;1003005;-75
2023/01/10 02:33:29;;;;;;;3.30;2.20;;;;;;;-10.58;100.00;100469.67;106461;1289;1002956;-75
2023/01/10 02:36:15;;;;;;;6.10;2.50;;;;;;;-10.60;100.00;100473.02;107115;1288;22566;-74
2023/01/10 02:39:04;;;;;;;3.10;1.80;;;;;;;-10.60;100.00;100480.01;107102;1288;24281;-74
2023/01/10 02:41:37;;;;;;;2.50;2.10;;;;;;;-10.60;100.00;100494.11;107169;1288;22609;-74
2023/01/10 02:44:10;;;;;;;7.00;2.30;;;;;;;-10.61;100.00;100504.08;106455;1288;1003494;-75
2023/01/10 02:46:37;;;;;;;4.40;2.50;;;;;;;-10.62;100.00;100509.31;107309;1289;22998;-74
2023/01/10 02:49:05;;;;;;;4.10;2.20;;;;;;;-10.63;100.00;100518.38;106389;1288;1003037;-75
2023/01/10 02:51:32;;;;;;;3.70;2.40;;;;;;;-10.64;100.00;100518.40;106353;1288;1016259;-74
2023/01/10 02:54:20;;;;;;;4.00;2.10;;;;;;;-10.65;100.00;100515.27;107587;1281;22630;-75
2023/01/10 02:57:14;;;;;;;4.40;2.60;;;;;;;-10.65;100.00;100504.48;106744;1281;1005841;-77
2023/01/10 03:00:19;;;;;;;3.00;1.80;;;;;;;-10.64;100.00;100502.55;107426;1259;22841;-75
2023/01/10 03:03:05;;;;;;;2.00;1.50;;;;;;;-10.63;100.00;100510.36;107422;1281;22625;-74
2023/01/10 03:05:59;;;;;;;4.50;2.60;;;;;;;-10.62;100.00;100511.91;107487;1281;22558;-75
2023/01/10 03:08:50;;;;;;;5.60;2.70;;;;;;;-10.63;100.00;100508.98;107472;1281;22787;-75
2023/01/10 03:11:38;;;;;;;2.80;2.10;;;;;;;-10.61;100.00;100509.11;106980;1281;1002680;-74
2023/01/10 03:14:12;;;;;;;6.10;2.20;;;;;;;-10.58;100.00;100506.09;107669;1281;22797;-73
2023/01/10 03:16:40;;;;;;;11.10;2.80;;;;;;;-10.55;100.00;100505.17;106934;1281;1002938;-74
2023/01/10 03:19:18;;;;;;;3.50;2.10;;;;;;;-10.53;100.00;100506.17;107274;1281;25946;-74
2023/01/10 03:21:45;;;;;;;2.30;2.00;;;;;;;-10.53;100.00;100506.02;107490;1259;25500;-75
2023/01/10 03:24:16;;;;;;;4.40;2.10;;;;;;;-10.53;100.00;100504.11;106585;1282;1002486;-73
2023/01/10 03:26:51;;;;;;;2.20;2.10;;;;;;;-10.52;100.00;100501.12;106797;1282;1002947;-75
2023/01/10 03:29:23;;;;;;;2.40;1.70;;;;;;;-10.54;100.00;100499.75;107617;1282;23038;-76
2023/01/10 03:31:53;;;;;;;7.10;3.10;;;;;;;-10.56;100.00;100498.75;106645;1282;1003030;-74
2023/01/10 03:34:20;;;;;;;5.00;2.80;;;;;;;-10.59;100.00;100494.27;107419;1282;22553;-76
2023/01/10 03:37:11;;;;;;;6.50;3.00;;;;;;;-10.60;100.00;100506.14;106558;1282;1002969;-74
2023/01/10 03:39:41;;;;;;;6.80;3.00;;;;;;;-10.61;100.00;100507.20;106706;1258;1002843;-75
2023/01/10 03:42:19;;;;;;;2.30;1.90;;;;;;;-10.61;100.00;100503.90;107637;1259;22985;-74
2023/01/10 03:44:52;;;;;;;3.20;2.40;;;;;;;-10.61;100.00;100495.52;106741;1281;1003420;-73
2023/01/10 03:47:20;;;;;;;3.80;2.40;;;;;;;-10.62;100.00;100496.58;107601;1281;25234;-74
2023/01/10 03:49:49;;;;;;;3.20;2.10;;;;;;;-10.61;100.00;100499.54;106770;1281;1003068;-75
2023/01/10 03:52:18;;;;;;;7.40;3.20;;;;;;;-10.61;100.00;100501.28;107421;1281;26145;-76
2023/01/10 03:54:45;;;;;;;5.40;3.00;;;;;;;-10.61;100.00;100491.34;106670;1281;1003174;-74
2023/01/10 03:57:17;;;;;;;5.00;2.30;;;;;;;-10.61;100.00;100494.66;106762;1281;1002825;-75
2023/01/10 03:59:45;;;;;;;8.80;3.20;;;;;;;-10.60;100.00;100490.27;107553;1281;22537;-76
2023/01/10 04:02:12;;;;;;;8.10;2.40;;;;;;;-10.60;100.00;100491.15;106681;1281;1002967;-74
2023/01/10 04:04:40;;;;;;;8.80;2.40;;;;;;;-10.59;100.00;100493.58;107598;1281;22591;-73
2023/01/10 04:07:07;;;;;;;6.20;2.30;;;;;;;-10.57;100.00;100486.39;107760;1259;22679;-75
2023/01/10 04:09:34;;;;;;;11.10;3.80;;;;;;;-10.56;100.00;100480.98;106749;1281;1003041;-75
2023/01/10 04:12:02;;;;;;;6.80;2.60;;;;;;;-10.55;100.00;100481.81;107373;1281;22725;-74
2023/01/10 04:14:31;;;;;;;9.60;3.40;;;;;;;-10.53;100.00;100487.02;106731;1281;1002907;-74
2023/01/10 04:16:58;;;;;;;5.90;3.00;;;;;;;-10.52;100.00;100488.57;106831;1281;1002969;-74
2023/01/10 04:19:26;;;;;;;12.20;4.30;;;;;;;-10.51;100.00;100486.10;107565;1281;24381;-75
2023/01/10 04:21:53;;;;;;;5.30;2.90;;;;;;;-10.49;100.00;100489.91;107373;1281;22627;-75
2023/01/10 04:24:20;;;;;;;3.10;2.60;;;;;;;-10.47;100.00;100492.15;106772;1281;1002969;-76
2023/01/10 04:26:48;;;;;;;6.20;2.50;;;;;;;-10.45;100.00;100489.49;107702;1281;22599;-75
2023/01/10 04:29:15;;;;;;;3.10;1.90;;;;;;;-10.41;100.00;100487.16;107013;1281;1002587;-74
2023/01/10 04:31:43;;;;;;;5.20;2.60;;;;;;;-10.39;100.00;100487.81;107518;1281;22626;-75
2023/01/10 04:34:10;;;;;;;3.70;2.30;;;;;;;-10.37;100.00;100486.89;107825;1281;22594;-75
2023/01/10 04:36:37;;;;;;;5.10;2.10;;;;;;;-10.34;100.00;100482.84;106926;1281;1002912;-74
2023/01/10 04:39:05;;;;;;;6.00;2.50;;;;;;;-10.32;100.00;100491.86;107706;1281;25578;-75
2023/01/10 04:41:32;;;;;;;4.00;2.30;;;;;;;-10.31;100.00;100496.55;107741;1281;25635;-75
2023/01/10 04:44:00;;;;;;;5.20;2.60;;;;;;;-10.30;100.00;100501.55;106875;1281;1003510;-75
2023/01/10 04:46:28;;;;;;;7.90;3.00;;;;;;;-10.28;100.00;100504.50;107686;1281;22666;-76
2023/01/10 04:48:57;;;;;;;4.90;2.80;;;;;;;-10.28;100.00;100511.63;107560;1280;24444;-73
2023/01/10 04:51:25;;;;;;;3.80;2.40;;;;;;;-10.27;100.00;100514.92;106997;1259;1003219;-75
2023/01/10 04:53:53;;;;;;;2.80;2.40;;;;;;;-10.27;100.00;100511.08;106678;1281;1002915;-74
2023/01/10 04:56:21;;;;;;;3.90;2.30;;;;;;;-10.25;100.00;100512.45;107306;1281;24247;-75
2023/01/10 04:58:48;;;;;;;5.40;2.60;;;;;;;-10.24;100.00;100519.42;107604;1281;22591;-75
2023/01/10 05:01:21;;;;;;;7.60;2.80;;;;;;;-10.23;100.00;100523.93;106952;1281;1003150;-76
2023/01/10 05:03:50;;;;;;;5.20;2.80;;;;;;;-10.21;100.00;100532.96;106811;1281;1015516;-75
2023/01/10 05:06:18;;;;;;;7.30;3.10;;;;;;;-10.19;100.00;100537.27;107601;1281;22795;-76
2023/01/10 05:08:45;;;;;;;10.90;2.70;;;;;;;-10.18;100.00;100533.07;108143;1276;26866;-77
2023/01/10 05:11:13;;;;;;;5.40;2.50;;;;;;;-10.15;100.00;100538.43;107347;1277;1003397;-76
2023/01/10 05:13:40;;;;;;;2.60;2.30;;;;;;;-10.13;100.00;100534.20;108122;1277;22625;-76
2023/01/10 05:16:07;;;;;;;7.60;3.10;;;;;;;-10.13;100.00;100534.73;107303;1277;1002688;-76
2023/01/10 05:18:35;;;;;;;4.20;2.20;;;;;;;-10.12;100.00;100535.23;107090;1277;1002649;-77
2023/01/10 05:21:06;;;;;;;4.90;3.00;;;;;;;-10.11;100.00;100527.35;107895;1277;23034;-76
2023/01/10 05:23:34;;;;;;;7.90;3.30;;;;;;;-10.10;100.00;100531.02;107790;1277;22622;-76
2023/01/10 05:26:12;;;;;;;6.60;3.20;;;;;;;-10.10;100.00;100536.77;107189;1277;1003258;-76
2023/01/10 05:28:40;;;;;;;4.70;2.70;;;;;;;-10.10;100.00;100539.71;107202;1277;1002461;-76
2023/01/10 05:31:08;;;;;;;4.10;2.30;;;;;;;-10.08;100.00;100545.29;107910;1277;24097;-75
2023/01/10 05:33:36;;;;;;;8.30;3.00;;;;;;;-10.07;100.00;100549.79;107321;1278;1003227;-76
2023/01/10 05:36:04;;;;;;;4.50;2.20;;;;;;;-10.06;100.00;100554.65;107894;1279;22636;-74
2023/01/10 05:38:32;;;;;;;9.30;2.80;;;;;;;-10.06;100.00;100557.96;106959;1279;1002812;-75
2023/01/10 05:41:00;;;;;;;7.90;2.50;;;;;;;-10.03;100.00;100565.95;107582;1262;22822;-75
2023/01/10 05:43:28;;;;;;;2.70;2.40;;;;;;;-10.02;100.00;100568.52;106849;1279;1002448;-76
2023/01/10 05:45:55;;;;;;;5.70;3.00;;;;;;;-10.00;100.00;100578.43;106721;1279;1015034;-75
2023/01/10 05:48:23;;;;;;;9.20;2.70;;;;;;;-9.98;100.00;100581.53;106727;1279;1003322;-75
2023/01/10 05:50:50;;;;;;;8.60;2.80;;;;;;;-9.95;100.00;100584.98;107576;1279;22568;-75
2023/01/10 05:53:18;;;;;;;7.00;3.40;;;;;;;-9.93;100.00;100585.83;106767;1279;1002649;-75
2023/01/10 05:56:12;;;;;;;5.60;2.80;;;;;;;-9.92;100.00;100590.48;106893;1279;1003438;-74
2023/01/10 05:58:39;;;;;;;6.60;3.00;;;;;;;-9.90;100.00;100600.40;106747;1279;1003112;-76
2023/01/10 06:01:07;;;;;;;2.90;2.60;;;;;;;-9.87;100.00;100600.00;106814;1279;1002524;-74
2023/01/10 06:03:35;;;;;;;8.00;2.70;;;;;;;-9.85;100.00;100606.59;106886;1279;1003709;-74
2023/01/10 06:06:03;;;;;;;10.70;3.50;;;;;;;-9.82;100.00;100615.80;106880;1279;1003667;-76
2023/01/10 06:08:30;;;;;;;5.70;2.70;;;;;;;-9.79;100.00;100623.06;106565;1279;1002959;-75
2023/01/10 06:10:58;;;;;;;7.60;2.60;;;;;;;-9.77;100.00;100618.98;107555;1279;22581;-74
2023/01/10 06:13:25;;;;;;;6.60;3.00;;;;;;;-9.72;100.00;100619.98;106351;1279;1003442;-71
2023/01/10 06:15:53;;;;;;;5.60;2.40;;;;;;;-9.69;100.00;100625.84;106935;1279;24307;-75
2023/01/10 06:18:20;;;;;;;5.10;3.10;;;;;;;-9.64;100.00;100637.09;106759;1279;1003017;-73
2023/01/10 06:20:47;;;;;;;7.20;3.10;;;;;;;-9.62;100.00;100644.56;106481;1279;1003233;-73
2023/01/10 06:23:15;;;;;;;4.30;2.30;;;;;;;-9.59;100.00;100652.35;107399;1279;22520;-72
2023/01/10 06:25:43;;;;;;;19.00;3.70;;;;;;;-9.55;100.00;100653.50;106436;1279;1003158;-74
2023/01/10 06:28:11;;;;;;;6.40;2.90;;;;;;;-9.51;100.00;100663.20;107184;1279;22551;-76
2023/01/10 06:30:40;;;;;;;7.20;2.90;;;;;;;-9.46;100.00;100669.21;106644;1279;1005755;-74
2023/01/10 06:33:09;;;;;;;7.00;3.10;;;;;;;-9.41;100.00;100671.92;107579;1278;25444;-74
2023/01/10 06:35:36;;;;;;;13.70;4.10;;;;;;;-9.35;100.00;100677.55;106857;1270;1003675;-73
2023/01/10 06:38:04;;;;;;;22.00;4.40;;;;;;;-9.29;100.00;100679.54;106983;1272;26697;-70
2023/01/10 06:40:31;;;;;;;8.80;3.50;;;;;;;-9.22;100.00;100684.81;106778;1276;22634;-70
2023/01/10 06:42:59;;;;;;;9.00;3.50;;;;;;;-9.14;100.00;100690.95;106196;1270;1003683;-70
2023/01/10 06:45:26;;;;;;;10.40;3.40;;;;;;;-9.07;100.00;100697.98;106152;1274;1003311;-70
2023/01/10 06:47:53;;;;;;;7.80;3.30;;;;;;;-9.02;100.00;100705.03;106848;1261;24231;-72
2023/01/10 06:50:21;;;;;;;7.80;3.30;;;;;;;-8.97;100.00;100718.21;106798;1270;22656;-70
2023/01/10 06:52:58;;;;;;;10.40;4.00;;;;;;;-8.91;100.00;100721.23;106040;1262;1003314;-72
2023/01/10 06:55:26;;;;;;;8.60;3.60;;;;;;;-8.85;100.00;100726.19;107162;1278;22731;-71
2023/01/10 06:57:55;;;;;;;8.10;3.40;;;;;;;-8.80;100.00;100733.77;106413;1276;1003305;-72
2023/01/10 07:00:23;;;;;;;7.00;3.10;;;;;;;-8.73;100.00;100737.13;106944;1271;24310;-73
2023/01/10 07:02:50;;;;;;;3.70;2.30;;;;;;;-8.68;100.00;100742.42;106137;1276;1003382;-68
2023/01/10 07:05:17;;;;;;;6.50;2.80;;;;;;;-8.61;100.00;100747.70;106924;1278;22584;-69
2023/01/10 07:07:45;;;;;;;5.60;2.80;;;;;;;-8.55;100.00;100754.06;105955;1276;1003607;-70
2023/01/10 07:10:12;;;;;;;13.30;3.60;;;;;;;-8.52;100.00;100767.80;106651;1278;22763;-70
2023/01/10 07:12:39;;;;;;;10.80;4.10;;;;;;;-8.47;100.00;100772.77;106008;1276;1002504;-68
2023/01/10 07:15:07;;;;;;;16.20;4.10;;;;;;;-8.40;100.00;100777.30;106766;1278;22599;-68
2023/01/10 07:17:35;;;;;;;10.70;4.60;;;;;;;-8.32;100.00;100784.63;106875;1260;22589;-75
2023/01/10 07:20:02;;;;;;;10.00;4.10;;;;;;;-8.19;100.00;100778.06;107448;1277;22580;-74
2023/01/10 07:22:30;;;;;;;7.50;3.40;;;;;;;-8.04;100.00;100775.28;106885;1272;1003037;-75
2023/01/10 07:24:57;;;;;;;10.80;3.40;;;;;;;-7.92;100.00;100775.52;107171;1270;22677;-76
2023/01/10 07:27:24;;;;;;;8.10;3.70;;;;;;;-7.81;100.00;100785.61;106855;1278;1002618;-76
2023/01/10 07:29:51;;;;;;;8.50;3.60;;;;;;;-7.74;100.00;100801.02;107378;1279;25453;-76
2023/01/10 07:32:19;;;;;;;10.90;4.00;;;;;;;-7.70;100.00;100807.57;107008;1278;24105;-74
2023/01/10 07:34:54;;;;;;;11.70;3.60;;;;;;;-7.67;100.00;100825.88;107500;1276;22695;-77
2023/01/10 07:37:25;;;;;;;13.30;3.80;;;;;;;-7.64;100.00;100832.81;107804;1278;22588;-78
2023/01/10 07:39:53;;;;;;;13.10;5.10;;;;;;;-7.59;100.00;100832.36;106890;1278;1003102;-75
2023/01/10 07:42:20;;;;;;;14.20;4.00;;;;;;;-7.58;100.00;100841.95;107902;1276;22553;-79
2023/01/10 07:44:47;;;;;;;15.70;3.50;;;;;;;-7.54;100.00;100853.96;107941;1276;22565;-70
2023/01/10 07:47:15;;;;;;;6.30;2.70;;;;;;;-7.46;100.00;100863.20;105951;1277;1002894;-69
2023/01/10 07:49:43;;;;;;;10.30;3.20;;;;;;;-7.32;100.00;100866.20;106809;1271;22591;-68
2023/01/10 07:52:10;;;;;;;10.00;2.90;;;;;;;-7.17;100.00;100871.11;106759;1270;22529;-68
2023/01/10 07:54:37;;;;;;;9.40;3.70;;;;;;;-7.08;100.00;100874.73;106028;1276;1003644;-69
2023/01/10 07:57:04;;;;;;;12.00;3.80;;;;;;;-7.01;100.00;100883.85;106712;1276;22537;-67
2023/01/10 07:59:32;;;;;;;8.60;3.00;;;;;;;-6.93;100.00;100891.00;106804;1276;24222;-71
2023/01/10 08:01:59;;;;;;;13.80;3.40;;;;;;;-6.81;100.00;100901.38;106499;1276;1002926;-78
2023/01/10 08:04:26;;;;;;;10.70;3.30;;;;;;;-6.70;100.00;100904.60;107864;1276;22740;-75
2023/01/10 08:20:45;;;;;;;17.80;5.50;;;;;;;-6.06;100.00;100939.70;104652;1296;556872;-70
2023/01/10 08:23:15;;;;;;;9.10;4.00;;;;;;;-5.78;100.00;100939.39;105826;1285;211636;-70
2023/01/10 08:25:43;;;;;;;4.70;2.90;;;;;;;-5.69;100.00;100940.55;105466;1287;1002877;-70
2023/01/10 08:28:10;;;;;;;8.40;3.00;;;;;;;-5.72;100.00;100960.30;105205;1283;1003292;-70
2023/01/10 08:30:37;;;;;;;10.10;4.00;;;;;;;-5.78;100.00;100965.55;105465;1282;1003498;-75
2023/01/10 08:33:05;;;;;;;5.10;2.80;;;;;;;-5.77;100.00;100969.41;106101;1287;22696;-71
2023/01/10 08:35:37;;;;;;;5.30;3.10;;;;;;;-5.75;100.00;100963.57;105418;1282;1003203;-71
2023/01/10 08:38:04;;;;;;;7.50;3.40;;;;;;;-5.72;100.00;100955.02;106168;1283;24280;-67
2023/01/10 08:40:32;;;;;;;9.70;3.40;;;;;;;-5.64;100.00;100954.79;105376;1287;1003571;-67
2023/01/10 08:43:00;;;;;;;6.30;3.10;;;;;;;-5.54;100.00;100952.39;105427;1286;1003445;-75
2023/01/10 08:45:28;;;;;;;8.20;3.10;;;;;;;-5.55;100.00;100955.76;106319;1283;22562;-74
2023/01/10 08:47:55;;;;;;;13.50;4.00;;;;;;;-5.56;100.00;100961.77;105134;1280;1003332;-75
2023/01/10 08:50:23;;;;;;;10.20;3.60;;;;;;;-5.49;100.00;100967.00;105234;1280;1003593;-69
2023/01/10 08:52:50;;;;;;;8.50;2.80;;;;;;;-5.40;100.00;100954.61;106225;1287;22696;-74
2023/01/10 08:55:18;;;;;;;5.10;2.90;;;;;;;-5.35;100.00;100957.60;105887;1287;24547;-72
2023/01/10 09:03:31;;;;;;;10.60;4.10;;;;;;;-5.24;100.00;100964.84;105128;1280;1003669;-69
2023/01/10 09:06:44;;;;;;;15.30;4.40;;;;;;;-5.08;100.00;100951.52;105157;1283;1003370;-69
2023/01/10 09:10:17;;;;;;;9.60;3.60;;;;;;;-5.06;100.00;100961.64;105355;1280;1002962;-70
2023/01/10 09:19:56;;;;;;;9.20;3.90;;;;;;;-4.93;100.00;100964.77;105612;1280;1003000;-74
2023/01/10 09:28:56;;;;;;;6.20;3.50;;;;;;;-4.67;100.00;100947.36;105517;1285;1003337;-71
2023/01/10 09:32:10;;;;;;;7.70;3.00;;;;;;;-4.72;100.00;100956.14;105388;1287;1003823;-69
2023/01/10 09:45:44;;;;;;;9.50;3.90;;;;;;;-4.17;100.00;100912.70;105234;1280;1003033;-72
2023/01/10 09:48:17;;;;;;;9.60;3.40;;;;;;;-4.09;100.00;100910.09;105289;1282;1002942;-72
2023/01/10 09:51:08;;;;;;;9.50;3.70;;;;;;;-3.96;100.00;100906.12;105266;1286;1002893;-70
2023/01/10 09:53:36;;;;;;;10.10;3.90;;;;;;;-3.82;100.00;100897.66;105428;1287;1003202;-76
2023/01/10 09:56:05;;;;;;;13.40;4.00;;;;;;;-3.79;100.00;100901.40;106008;1283;1002958;-68
2023/01/10 09:58:33;;;;;;;7.40;3.40;;;;;;;-3.77;100.00;100892.53;105380;1287;1002969;-70
2023/01/10 10:01:12;;;;;;;10.40;3.60;;;;;;;-3.75;100.00;100888.02;105028;1282;1002563;-71
2023/01/10 10:03:56;;;;;;;17.60;3.80;;;;;;;-3.68;100.00;100877.55;105289;1282;1002343;-72
2023/01/10 10:06:24;;;;;;;12.60;4.10;;;;;;;-3.58;100.00;100885.45;105171;1283;1003418;-71
2023/01/10 10:08:52;;;;;;;9.50;3.90;;;;;;;-3.45;100.00;100875.79;105290;1283;1016135;-70
2023/01/10 10:11:25;;;;;;;5.70;3.10;;;;;;;-3.31;100.00;100861.65;105173;1285;1002801;-71
2023/01/10 10:14:34;;;;;;;7.70;3.40;;;;;;;-3.24;100.00;100861.70;106233;1281;25399;-75
2023/01/10 10:17:33;;;;;;;13.20;4.00;;;;;;;-3.09;100.00;100853.14;105845;1272;1003513;-74
2023/01/10 10:20:11;;;;;;;13.80;3.50;;;;;;;-2.87;100.00;100844.98;106443;1263;25450;-70
2023/01/10 10:22:49;;;;;;;10.90;4.00;;;;;;;-2.75;100.00;100850.65;105716;1273;1002355;-71
2023/01/10 10:25:53;;;;;;;25.90;5.20;;;;;;;-2.70;100.00;100846.90;105665;1273;1003059;-71
2023/01/10 10:28:35;;;;;;;7.80;2.60;;;;;;;-2.76;100.00;100861.66;106367;1276;26606;-73
2023/01/10 10:32:28;;;;;;;8.80;4.10;;;;;;;-2.86;100.00;100854.13;106706;1279;22734;-76
2023/01/10 10:35:00;;;;;;;11.20;3.40;;;;;;;-2.82;100.00;100841.09;105934;1279;1003001;-73
2023/01/10 10:37:34;;;;;;;14.50;3.70;;;;;;;-2.71;100.00;100829.11;105973;1279;1003839;-73
2023/01/10 10:40:46;;;;;;;7.20;3.00;;;;;;;-2.56;100.00;100820.55;105961;1279;1003075;-70
2023/01/10 10:43:25;;;;;;;7.80;3.60;;;;;;;-2.42;100.00;100810.89;106721;1273;22774;-73
2023/01/10 10:46:12;;;;;;;7.70;3.70;;;;;;;-2.36;100.00;100810.99;105865;1279;1003322;-69
2023/01/10 10:48:46;;;;;;;8.90;4.10;;;;;;;-2.31;100.00;100814.98;105902;1279;1002803;-70
2023/01/10 10:51:41;;;;;;;7.10;3.20;;;;;;;-2.25;100.00;100822.88;106599;1273;22798;-70
2023/01/10 10:54:10;;;;;;;12.90;3.60;;;;;;;-2.22;100.00;100817.80;105824;1273;1003487;-72
2023/01/10 10:56:37;;;;;;;7.40;3.60;;;;;;;-2.22;100.00;100819.00;105837;1275;1003055;-72
2023/01/10 10:59:05;;;;;;;5.80;3.00;;;;;;;-2.24;100.00;100821.59;105950;1276;1003301;-74
2023/01/10 11:01:32;;;;;;;3.50;2.70;;;;;;;-2.24;100.00;100814.32;106618;1273;25802;-76
2023/01/10 11:04:22;;;;;;;8.20;2.90;;;;;;;-2.21;100.00;100808.73;106416;1278;24228;-73
2023/01/10 11:06:50;;;;;;;4.90;3.00;;;;;;;-2.28;100.00;100818.93;105745;1279;1003042;-74
2023/01/10 11:09:29;;;;;;;12.10;4.00;;;;;;;-2.34;100.00;100814.25;105749;1280;1002925;-73
2023/01/10 11:11:58;;;;;;;6.30;3.20;;;;;;;-2.34;100.00;100811.79;105970;1257;1002987;-76
2023/01/10 11:14:46;;;;;;;7.20;3.20;;;;;;;-2.32;100.00;100808.17;105898;1279;1003050;-76
2023/01/10 11:17:24;;;;;;;8.40;3.50;;;;;;;-2.26;100.00;100805.23;106664;1273;25497;-75
2023/01/10 11:19:58;;;;;;;8.90;3.50;;;;;;;-2.15;100.00;100805.45;106711;1278;24429;-74
2023/01/10 11:26:39;;;;;;;10.70;4.20;;;;;;;-2.04;100.00;100797.52;106701;1274;25542;-73
2023/01/10 11:29:25;;;;;;;9.40;3.50;;;;;;;-2.00;100.00;100795.75;105969;1279;1003363;-71
2023/01/10 11:31:54;;;;;;;6.20;3.20;;;;;;;-1.93;100.00;100802.12;105913;1279;1003426;-73
2023/01/10 11:34:28;;;;;;;9.10;3.30;;;;;;;-1.92;100.00;100790.94;106985;1275;25575;-72
2023/01/10 11:37:30;;;;;;;11.60;3.90;;;;;;;-1.99;100.00;100788.44;106833;1275;23864;-72
2023/01/10 11:40:32;;;;;;;5.20;3.10;;;;;;;-2.15;100.00;100784.95;106160;1275;1002939;-73
2023/01/10 11:43:22;;;;;;;9.20;3.80;;;;;;;-2.32;100.00;100782.56;106137;1275;1002956;-71
2023/01/10 11:45:55;;;;;;;9.60;3.50;;;;;;;-2.49;100.00;100788.45;106252;1275;1003717;-72
2023/01/10 11:48:24;;;;;;;7.70;3.50;;;;;;;-2.69;100.00;100790.73;107001;1275;24963;-74
2023/01/10 11:51:32;;;;;;;4.80;3.10;;;;;;;-2.93;100.00;100793.39;106206;1275;1003103;-73
2023/01/10 11:54:27;;;;;;;5.90;3.30;;;;;;;-3.17;100.00;100798.65;107870;1270;23907;-78
2023/01/10 11:57:14;;;;;;;11.80;4.00;;;;;;;-3.33;100.00;100794.02;107542;1269;22781;-78
2023/01/10 12:00:02;;;;;;;9.50;3.90;;;;;;;-3.39;100.00;100793.23;107756;1275;25252;-75
2023/01/10 12:02:44;;;;;;;5.50;3.40;;;;;;;-3.35;100.00;100781.59;106851;1272;1002345;-77
2023/01/10 12:05:23;;;;;;;6.80;3.10;;;;;;;-3.37;100.00;100785.52;106919;1275;1002825;-77
2023/01/10 12:08:05;;;;;;;9.80;3.60;;;;;;;-3.41;100.00;100787.31;107618;1275;22527;-76
2023/01/10 12:10:33;;;;;;;9.50;3.50;;;;;;;-3.42;100.00;100795.97;107044;1272;1002867;-77
2023/01/10 12:13:13;;;;;;;11.90;3.50;;;;;;;-3.44;100.00;100793.56;106868;1275;1003362;-78
2023/01/10 12:15:53;;;;;;;16.40;4.90;;;;;;;-3.47;100.00;100789.81;106761;1276;1014317;-77
2023/01/10 12:18:20;;;;;;;8.00;4.30;;;;;;;-3.47;100.00;100788.21;107267;1275;22550;-77
2023/01/10 12:20:51;;;;;;;11.60;3.70;;;;;;;-3.47;100.00;100780.67;107630;1275;22523;-77
2023/01/10 12:23:21;;;;;;;10.00;3.80;;;;;;;-3.49;100.00;100779.16;107455;1275;22640;-78
2023/01/10 12:25:48;;;;;;;5.70;3.20;;;;;;;-3.51;100.00;100785.77;106946;1275;1003042;-76
2023/01/10 12:28:26;;;;;;;7.30;3.00;;;;;;;-3.56;100.00;100784.20;106722;1275;1002555;-77
2023/01/10 12:31:39;;;;;;;8.50;2.70;;;;;;;-3.63;100.00;100793.12;106793;1272;1003155;-76
2023/01/10 12:34:33;;;;;;;7.00;3.40;;;;;;;-3.75;100.00;100799.09;107545;1269;24256;-76
2023/01/10 12:54:14;;;;;;;6.10;2.80;;;;;;;-3.68;100.00;100795.23;104711;1296;1003107;-75
2023/01/10 12:56:41;;;;;;;6.30;2.60;;;;;;;-3.68;100.00;100785.90;105969;1288;1003071;-76
2023/01/10 12:59:36;;;;;;;5.90;2.70;;;;;;;-3.78;100.00;100792.49;106675;1280;1003702;-76
2023/01/10 13:02:06;;;;;;;5.30;2.60;;;;;;;-3.91;100.00;100793.18;106531;1280;1003718;-74
2023/01/10 13:04:35;;;;;;;4.40;2.70;;;;;;;-4.00;100.00;100789.66;106453;1280;1002925;-75
2023/01/10 13:07:02;;;;;;;3.00;2.00;;;;;;;-4.07;100.00;100783.21;107252;1281;24286;-76
2023/01/10 13:09:32;;;;;;;4.70;2.50;;;;;;;-4.12;100.00;100782.02;107224;1281;25606;-75
2023/01/10 13:12:39;;;;;;;6.70;2.70;;;;;;;-4.19;100.00;100781.92;106127;1281;1002732;-70
2023/01/10 13:15:49;;;;;;;7.80;2.80;;;;;;;-4.26;100.00;100777.45;107247;1281;22539;-78
2023/01/10 13:18:24;;;;;;;6.30;3.00;;;;;;;-4.38;100.00;100779.13;106235;1275;1002984;-70
2023/01/10 13:21:07;;;;;;;9.70;3.10;;;;;;;-4.55;100.00;100781.52;106520;1281;24212;-71
2023/01/10 13:23:50;;;;;;;8.10;2.80;;;;;;;-4.72;100.00;100779.67;105966;1264;1003121;-71
2023/01/10 13:26:18;;;;;;;5.60;3.10;;;;;;;-4.88;100.00;100774.99;106959;1270;24263;-77
2023/01/10 13:28:59;;;;;;;7.90;2.80;;;;;;;-5.05;100.00;100770.99;107610;1274;22534;-76
2023/01/10 13:32:02;;;;;;;7.40;3.20;;;;;;;-5.20;100.00;100765.91;106822;1270;1003652;-76
2023/01/10 13:34:33;;;;;;;10.80;3.20;;;;;;;-5.33;100.00;100761.77;107728;1277;22531;-75
2023/01/10 13:37:10;;;;;;;8.80;3.00;;;;;;;-5.41;100.00;100762.38;107802;1277;22533;-75
2023/01/10 13:39:47;;;;;;;8.20;2.70;;;;;;;-5.46;100.00;100768.90;106781;1273;1004336;-77
2023/01/10 13:45:32;;;;;;;9.00;3.00;;;;;;;-5.65;100.00;100778.47;106387;1274;1002373;-69
2023/01/10 13:48:01;;;;;;;8.10;2.90;;;;;;;-5.83;100.00;100782.03;106046;1270;1003563;-69
2023/01/10 13:50:41;;;;;;;10.90;3.20;;;;;;;-6.01;100.00;100782.64;106819;1277;22604;-71
2023/01/10 13:53:27;;;;;;;12.10;4.00;;;;;;;-6.19;100.00;100786.67;106048;1269;1002500;-68
2023/01/10 13:55:55;;;;;;;9.40;3.50;;;;;;;-6.37;100.00;100789.33;105841;1278;1003683;-70
2023/01/10 14:04:33;;;;;;;13.50;3.40;;;;;;;-6.91;100.00;100813.13;105964;1277;1003633;-68
2023/01/10 14:07:17;;;;;;;;;;;;;;;-7.06;100.00;100816.83;105994;1274;1003756;-68
2023/01/10 14:09:44;;;;;;;;;;;;;;;-7.16;100.00;100820.77;106826;1272;24268;-74
2023/01/10 14:12:39;;;;;;;10.30;3.20;;;;;;;-7.25;100.00;100828.55;107537;1277;23008;-77
2023/01/10 14:15:37;;;;;;;7.60;3.10;;;;;;;-7.33;100.00;100830.13;107297;1277;22551;-74
2023/01/10 14:18:14;;;;;;;10.50;3.20;;;;;;;-7.37;100.00;100835.15;106778;1283;22586;-70
2023/01/10 14:21:09;;;;;;;11.40;3.00;;;;;;;-7.39;100.00;100831.70;106695;1278;1003035;-77
2023/01/10 14:23:53;;;;;;;9.00;2.80;;;;;;;-7.45;100.00;100847.42;106745;1278;22547;-69
2023/01/10 14:26:44;;;;;;;8.10;2.80;;;;;;;-7.53;100.00;100853.20;107504;1278;22533;-77
2023/01/10 14:29:17;;;;;;;9.20;3.00;;;;;;;-7.59;100.00;100851.44;106879;1271;22536;-70
2023/01/10 14:31:48;;;;;;;8.80;2.60;;;;;;;-7.67;100.00;100866.16;106039;1270;1003560;-70
2023/01/10 14:34:19;;;;;;;8.40;2.60;;;;;;;-7.73;100.00;100872.23;106914;1277;25543;-69
2023/01/10 14:36:59;;;;;;;11.50;3.00;;;;;;;-7.78;100.00;100874.29;106839;1278;22618;-77
2023/01/10 14:39:32;;;;;;;4.60;2.10;;;;;;;-7.83;100.00;100869.66;106612;1278;1015700;-77
2023/01/10 14:42:01;;;;;;;7.10;2.50;;;;;;;-7.86;100.00;100870.44;106892;1273;26044;-73
2023/01/10 14:44:42;;;;;;;3.90;2.10;;;;;;;-7.91;100.00;100865.83;106883;1270;23366;-72
2023/01/10 14:47:32;;;;;;;5.20;2.10;;;;;;;-7.97;100.00;100875.23;107310;1278;22564;-79
2023/01/10 14:50:02;;;;;;;4.70;2.00;;;;;;;-8.04;100.00;100878.19;106844;1270;1003041;-76
2023/01/10 14:52:30;;;;;;;5.10;2.50;;;;;;;-8.09;100.00;100884.92;106892;1275;1002871;-75
2023/01/10 14:55:23;;;;;;;8.30;2.70;;;;;;;-8.13;100.00;100888.85;107638;1278;23123;-77
2023/01/10 14:58:16;;;;;;;8.40;3.70;;;;;;;-8.17;100.00;100894.89;107424;1278;22670;-79
2023/01/10 15:01:00;;;;;;;5.00;2.60;;;;;;;-8.21;100.00;100894.62;107288;1278;25462;-70
2023/01/10 15:03:28;;;;;;;7.00;2.00;;;;;;;-8.24;100.00;100890.47;106061;1278;1003608;-69
2023/01/10 15:05:56;;;;;;;10.60;2.80;;;;;;;-8.26;100.00;100893.33;106762;1278;25594;-68
2023/01/10 15:08:26;;;;;;;5.70;2.90;;;;;;;-8.30;100.00;100888.69;107378;1277;24278;-71